createdAt,value
2023-03-25T00:00:57.982Z,97.20
2023-03-25T00:05:49.999Z,96.54
2023-03-25T00:10:41.766Z,96.10
2023-03-25T00:15:36.413Z,96.35
2023-03-25T00:20:28.138Z,95.38
2023-03-25T00:25:20.844Z,95.22
2023-03-25T00:30:12.949Z,94.72
2023-03-25T00:35:05.649Z,93.97
2023-03-25T00:39:57.368Z,94.02
2023-03-25T00:44:49.115Z,94.36
2023-03-25T00:49:40.903Z,94.31
2023-03-25T00:54:34.387Z,94.31
2023-03-25T00:59:25.988Z,94.61
2023-03-25T01:04:18.205Z,94.44
2023-03-25T01:09:13.807Z,94.22
2023-03-25T01:14:08.325Z,94.78
2023-03-25T01:19:00.108Z,95.01
2023-03-25T01:23:51.936Z,94.62
2023-03-25T01:28:44.560Z,94.63
2023-03-25T01:33:36.697Z,94.62
2023-03-25T01:38:30.469Z,95.14
2023-03-25T01:43:22.337Z,94.54
2023-03-25T01:48:35.854Z,94.75
2023-03-25T01:53:31.198Z,94.96
2023-03-25T01:58:24.583Z,94.81
2023-03-25T02:03:20.831Z,94.61
2023-03-25T02:08:15.988Z,94.23
2023-03-25T02:13:07.884Z,95.62
2023-03-25T02:18:14.826Z,96.15
2023-03-25T02:23:42.388Z,96.64
2023-03-25T02:28:47.408Z,97.17
2023-03-25T02:33:50.801Z,98.21
2023-03-25T02:38:45.311Z,98.29
2023-03-25T02:43:39.563Z,98.30
2023-03-25T02:48:37.902Z,98.70
2023-03-25T02:53:35.050Z,98.35
2023-03-25T02:58:29.982Z,97.48
2023-03-25T03:03:21.808Z,96.69
2023-03-25T03:08:41.622Z,96.97
2023-03-25T03:13:48.582Z,97.35
2023-03-25T03:18:48.541Z,97.11
2023-03-25T03:23:52.291Z,97.48
2023-03-25T03:28:50.507Z,97.78
2023-03-25T03:34:10.599Z,97.82
2023-03-25T03:39:07.445Z,97.43
2023-03-25T03:44:08.184Z,96.62
2023-03-25T03:49:03.088Z,95.59
2023-03-25T03:54:08.858Z,94.90
2023-03-25T03:59:04.042Z,93.76
2023-03-25T04:04:00.080Z,92.78
2023-03-25T04:09:07.892Z,92.38
2023-03-25T04:14:02.656Z,92.27
2023-03-25T04:18:55.262Z,92.22
2023-03-25T04:23:46.964Z,92.91
2023-03-25T04:28:41.906Z,93.61
2023-03-25T04:33:33.499Z,94.38
2023-03-25T04:38:25.384Z,95.52
2023-03-25T04:43:17.652Z,96.51
2023-03-25T04:48:41.709Z,98.21
2023-03-25T04:53:33.350Z,99.32
2023-03-25T04:58:25.103Z,100.00
2023-03-25T05:03:18.175Z,100.00
2023-03-25T05:08:11.669Z,100.00
2023-03-25T05:13:07.565Z,100.00
2023-03-25T05:17:59.324Z,100.00
2023-03-25T05:22:53.676Z,100.00
2023-03-25T05:27:46.851Z,100.00
2023-03-25T05:32:41.441Z,100.00
2023-03-25T05:37:33.386Z,100.00
2023-03-25T05:42:25.488Z,100.00
2023-03-25T05:47:26.411Z,100.00
2023-03-25T05:52:19.386Z,100.00
2023-03-25T05:57:12.401Z,100.00
2023-03-25T06:02:04.331Z,100.00
2023-03-25T06:06:56.435Z,100.00
2023-03-25T06:11:53.445Z,100.00
2023-03-25T06:16:45.046Z,100.00
2023-03-25T06:21:37.090Z,100.00
2023-03-25T06:26:28.742Z,100.00
2023-03-25T06:31:26.869Z,100.00
2023-03-25T06:36:19.170Z,100.00
2023-03-25T06:41:10.995Z,100.00
2023-03-25T06:46:03.194Z,100.00
2023-03-25T06:50:55.010Z,100.00
2023-03-25T06:55:48.126Z,100.00
2023-03-25T07:00:42.182Z,100.00
2023-03-25T07:05:34.996Z,100.00
2023-03-25T07:10:27.409Z,100.00
2023-03-25T07:15:21.054Z,100.00
2023-03-25T07:20:14.500Z,100.00
2023-03-25T07:25:07.833Z,100.00
2023-03-25T07:29:59.518Z,100.00
2023-03-25T07:34:51.330Z,100.00
2023-03-25T07:39:43.078Z,100.00
2023-03-25T07:44:34.712Z,100.00
2023-03-25T07:49:26.422Z,100.00
2023-03-25T07:54:18.087Z,100.00
2023-03-25T07:59:09.768Z,100.00
2023-03-25T08:04:01.428Z,100.00
2023-03-25T08:08:53.577Z,100.00
2023-03-25T08:13:45.143Z,100.00
2023-03-25T08:18:38.435Z,100.00
2023-03-25T08:23:30.110Z,100.00
2023-03-25T08:28:23.360Z,100.00
2023-03-25T08:33:16.778Z,100.00
2023-03-25T08:38:09.217Z,100.00
2023-03-25T08:43:01.134Z,100.00
2023-03-25T08:47:53.016Z,100.00
2023-03-25T08:52:44.664Z,100.00
2023-03-25T08:57:36.481Z,100.00
2023-03-25T09:02:28.464Z,99.77
2023-03-25T09:07:20.304Z,100.00
2023-03-25T09:12:12.123Z,97.97
2023-03-25T09:17:06.109Z,95.31
2023-03-25T09:21:57.771Z,89.11
2023-03-25T09:26:49.712Z,84.81
2023-03-25T09:31:41.491Z,78.83
2023-03-25T09:36:33.112Z,75.28
2023-03-25T09:42:13.029Z,73.26
2023-03-25T09:47:06.068Z,68.54
2023-03-25T09:51:57.742Z,68.84
2023-03-25T09:56:51.396Z,67.75
2023-03-25T10:02:04.814Z,64.48
2023-03-25T10:07:25.347Z,62.39
2023-03-25T10:12:38.701Z,60.89
2023-03-25T10:17:36.519Z,63.34
2023-03-25T10:22:40.244Z,61.88
2023-03-25T10:27:39.926Z,63.45
2023-03-25T10:32:38.597Z,65.13
2023-03-25T10:37:33.906Z,66.46
2023-03-25T10:42:47.635Z,63.41
2023-03-25T10:47:40.864Z,60.70
2023-03-25T10:52:32.693Z,58.30
2023-03-25T10:57:28.742Z,59.09
2023-03-25T11:02:23.133Z,58.42
2023-03-25T11:07:22.417Z,59.15
2023-03-25T11:12:19.233Z,61.04
2023-03-25T11:17:17.259Z,63.20
2023-03-25T11:22:13.020Z,62.67
2023-03-25T11:27:08.097Z,63.61
2023-03-25T11:32:06.031Z,65.94
2023-03-25T11:37:04.726Z,67.13
2023-03-25T11:41:58.737Z,63.49
2023-03-25T11:46:54.380Z,62.68
2023-03-25T11:51:46.629Z,62.46
2023-03-25T11:56:44.974Z,59.91
2023-03-25T12:01:48.186Z,57.22
2023-03-25T12:06:54.634Z,60.04
2023-03-25T12:12:06.526Z,61.38
2023-03-25T12:17:05.480Z,64.78
2023-03-25T12:22:15.610Z,66.56
2023-03-25T12:27:16.227Z,70.89
2023-03-25T12:32:16.750Z,72.67
2023-03-25T12:37:25.401Z,73.57
2023-03-25T12:42:30.786Z,74.64
2023-03-25T12:47:29.540Z,77.73
2023-03-25T12:52:26.981Z,79.63
2023-03-25T12:57:56.132Z,80.03
2023-03-25T13:02:54.240Z,81.44
2023-03-25T13:07:54.089Z,83.18
2023-03-25T13:12:57.138Z,82.82
2023-03-25T13:17:56.019Z,85.22
2023-03-25T13:22:52.491Z,81.19
2023-03-25T13:27:45.062Z,79.04
2023-03-25T13:32:48.335Z,77.52
2023-03-25T13:37:49.665Z,78.43
2023-03-25T13:42:59.876Z,76.23
2023-03-25T13:48:01.253Z,75.24
2023-03-25T13:53:00.470Z,73.33
2023-03-25T13:58:11.143Z,73.22
2023-03-25T14:03:26.049Z,71.83
2023-03-25T14:08:38.939Z,71.01
2023-03-25T14:13:36.606Z,67.71
2023-03-25T14:18:32.304Z,66.92
2023-03-25T14:23:26.330Z,66.05
2023-03-25T14:28:21.540Z,67.94
2023-03-25T14:33:13.419Z,65.68
2023-03-25T14:38:08.138Z,63.74
2023-03-25T14:43:00.529Z,63.37
2023-03-25T14:47:55.851Z,64.29
2023-03-25T14:52:53.000Z,63.18
2023-03-25T14:57:45.663Z,61.86
2023-03-25T15:02:38.260Z,60.58
2023-03-25T15:07:43.007Z,61.13
2023-03-25T15:12:38.825Z,62.45
2023-03-25T15:17:44.783Z,60.84
2023-03-25T15:22:38.083Z,61.22
2023-03-25T15:27:47.821Z,60.63
2023-03-25T15:32:52.734Z,62.81
2023-03-25T15:38:00.333Z,63.51
2023-03-25T15:48:41.787Z,59.64
2023-03-25T15:53:54.633Z,60.40
2023-03-25T15:58:58.569Z,59.65
2023-03-25T16:04:10.067Z,59.68
2023-03-25T16:09:03.114Z,59.61
2023-03-25T16:14:13.101Z,60.69
2023-03-25T16:19:08.393Z,59.85
2023-03-25T16:24:05.149Z,60.22
2023-03-25T16:29:07.852Z,60.53
2023-03-25T16:34:00.500Z,60.85
2023-03-25T16:38:52.448Z,62.36
2023-03-25T16:43:44.471Z,62.76
2023-03-25T16:48:39.837Z,63.26
2023-03-25T16:53:40.007Z,62.88
2023-03-25T16:58:33.874Z,64.57
2023-03-25T17:04:19.445Z,63.95
2023-03-25T17:09:18.401Z,64.87
2023-03-25T17:14:18.205Z,64.81
2023-03-25T17:19:14.321Z,63.29
2023-03-25T17:24:22.388Z,63.22
2023-03-25T17:29:14.554Z,63.33
2023-03-25T17:34:06.727Z,63.32
2023-03-25T17:39:00.812Z,63.87
2023-03-25T17:43:56.268Z,65.32
2023-03-25T17:48:50.343Z,65.21
2023-03-25T17:53:41.993Z,65.37
2023-03-25T17:58:33.680Z,66.09
2023-03-25T18:03:31.413Z,65.40
2023-03-25T18:08:24.997Z,66.16
2023-03-25T18:13:16.810Z,66.52
2023-03-25T18:18:16.052Z,67.12
2023-03-25T18:23:07.683Z,67.26
2023-03-25T18:27:59.671Z,67.75
2023-03-25T18:32:51.417Z,68.80
2023-03-25T18:37:43.248Z,68.31
2023-03-25T18:42:34.824Z,68.54
2023-03-25T18:47:26.550Z,69.96
2023-03-25T18:52:18.187Z,70.51
2023-03-25T18:57:09.944Z,71.33
2023-03-25T19:02:01.647Z,72.35
2023-03-25T19:06:53.830Z,72.25
2023-03-25T19:11:47.095Z,72.70
2023-03-25T19:16:38.723Z,72.99
2023-03-25T19:21:30.530Z,72.88
2023-03-25T19:26:22.808Z,73.10
2023-03-25T19:31:16.452Z,73.74
2023-03-25T19:36:15.081Z,74.32
2023-03-25T19:41:09.384Z,74.47
2023-03-25T19:46:03.370Z,75.20
2023-03-25T19:50:55.808Z,74.95
2023-03-25T19:55:47.526Z,75.30
2023-03-25T20:00:39.632Z,75.34
2023-03-25T20:05:32.698Z,76.06
2023-03-25T20:10:27.935Z,76.36
2023-03-25T20:15:21.165Z,76.77
2023-03-25T20:20:13.629Z,76.94
2023-03-25T20:25:07.142Z,77.01
2023-03-25T20:29:58.993Z,77.47
2023-03-25T20:34:50.969Z,77.68
2023-03-25T20:39:42.884Z,77.78
2023-03-25T20:44:35.326Z,78.43
2023-03-25T20:49:27.339Z,79.22
2023-03-25T20:54:19.125Z,79.79
2023-03-25T20:59:13.887Z,80.40
2023-03-25T21:04:06.435Z,80.36
2023-03-25T21:09:01.042Z,80.37
2023-03-25T21:13:57.326Z,81.42
2023-03-25T21:18:50.353Z,81.97
2023-03-25T21:23:43.815Z,82.49
2023-03-25T21:28:40.216Z,82.96
2023-03-25T21:33:33.721Z,83.52
2023-03-25T21:38:28.772Z,83.51
2023-03-25T21:43:21.099Z,83.45
2023-03-25T21:48:12.841Z,83.33
2023-03-25T21:53:06.342Z,83.28
2023-03-25T21:57:59.540Z,83.71
2023-03-25T22:02:58.401Z,83.63
2023-03-25T22:07:50.071Z,84.08
2023-03-25T22:12:41.775Z,84.01
2023-03-25T22:17:33.536Z,83.47
2023-03-25T22:22:25.377Z,83.47
2023-03-25T22:27:17.220Z,83.81
2023-03-25T22:32:09.113Z,83.76
2023-03-25T22:37:01.463Z,83.58
2023-03-25T22:41:54.382Z,83.41
2023-03-25T22:46:48.406Z,83.34
2023-03-25T22:51:40.407Z,84.20
2023-03-25T22:56:35.492Z,84.15
2023-03-25T23:01:28.696Z,83.82
2023-03-25T23:06:22.036Z,84.65
2023-03-25T23:11:17.361Z,84.78
2023-03-25T23:16:12.700Z,85.30
2023-03-25T23:21:04.584Z,85.22
2023-03-25T23:26:07.448Z,85.62
2023-03-25T23:30:59.194Z,86.44
2023-03-25T23:35:51.240Z,85.82
2023-03-25T23:40:43.355Z,85.96
2023-03-25T23:45:34.951Z,84.45
2023-03-25T23:50:26.737Z,84.21
2023-03-25T23:55:20.671Z,84.77
